createdAt,value
2023-05-22T00:01:47.006Z,13.71
2023-05-22T00:04:21.830Z,13.67
2023-05-22T00:06:49.894Z,13.63
2023-05-22T00:09:17.599Z,13.59
2023-05-22T00:11:45.751Z,13.54
2023-05-22T00:14:13.818Z,13.50
2023-05-22T00:16:41.762Z,13.45
2023-05-22T00:19:13.833Z,13.39
2023-05-22T00:21:42.653Z,13.34
2023-05-22T00:24:10.316Z,13.30
2023-05-22T00:26:38.204Z,13.26
2023-05-22T00:29:06.134Z,13.20
2023-05-22T00:31:33.851Z,13.14
2023-05-22T00:34:01.787Z,13.09
2023-05-22T00:36:30.326Z,13.03
2023-05-22T00:38:57.954Z,12.97
2023-05-22T00:41:26.229Z,12.92
2023-05-22T00:43:54.827Z,12.85
2023-05-22T00:46:23.014Z,12.78
2023-05-22T00:48:52.779Z,12.72
2023-05-22T00:51:21.771Z,12.65
2023-05-22T00:53:49.793Z,12.58
2023-05-22T00:56:17.730Z,12.51
2023-05-22T00:58:45.504Z,12.48
2023-05-22T01:01:13.151Z,12.49
2023-05-22T01:03:47.963Z,12.51
2023-05-22T01:06:18.070Z,12.54
2023-05-22T01:08:45.802Z,12.52
2023-05-22T01:11:20.256Z,12.49
2023-05-22T01:13:57.558Z,12.43
2023-05-22T01:16:37.691Z,12.38
2023-05-22T01:19:31.215Z,12.30
2023-05-22T01:22:25.369Z,12.23
2023-05-22T01:25:09.126Z,12.15
2023-05-22T01:28:14.684Z,12.08
2023-05-22T01:31:34.525Z,12.01
2023-05-22T01:34:02.916Z,11.92
2023-05-22T01:36:31.992Z,11.86
2023-05-22T01:39:01.479Z,11.80
2023-05-22T01:41:29.648Z,11.76
2023-05-22T01:43:57.510Z,11.71
2023-05-22T01:46:29.076Z,11.68
2023-05-22T01:48:57.627Z,11.64
2023-05-22T01:51:40.634Z,11.61
2023-05-22T01:54:09.511Z,11.56
2023-05-22T01:56:41.727Z,11.52
2023-05-22T01:59:25.652Z,11.48
2023-05-22T02:01:53.707Z,11.44
2023-05-22T02:04:22.077Z,11.42
2023-05-22T02:06:50.169Z,11.43
2023-05-22T02:09:18.090Z,11.46
2023-05-22T02:11:46.206Z,11.46
2023-05-22T02:14:14.160Z,11.46
2023-05-22T02:16:42.455Z,11.45
2023-05-22T02:19:10.140Z,11.43
2023-05-22T02:21:38.166Z,11.41
2023-05-22T02:24:06.198Z,11.38
2023-05-22T02:26:33.879Z,11.34
2023-05-22T02:29:01.686Z,11.30
2023-05-22T02:31:29.513Z,11.25
2023-05-22T02:33:57.243Z,11.21
2023-05-22T02:36:26.467Z,11.16
2023-05-22T02:38:55.620Z,11.11
2023-05-22T02:41:23.366Z,11.05
2023-05-22T02:43:51.177Z,10.99
2023-05-22T02:46:19.571Z,10.93
2023-05-22T02:48:47.626Z,10.89
2023-05-22T02:51:15.973Z,10.84
2023-05-22T02:53:43.680Z,10.82
2023-05-22T02:56:12.098Z,10.83
2023-05-22T02:58:39.952Z,10.86
2023-05-22T03:01:09.156Z,10.87
2023-05-22T03:03:37.339Z,10.89
2023-05-22T03:06:05.636Z,10.90
2023-05-22T03:08:34.209Z,10.89
2023-05-22T03:11:02.152Z,10.88
2023-05-22T03:13:29.955Z,10.86
2023-05-22T03:15:57.654Z,10.84
2023-05-22T03:18:27.469Z,10.82
2023-05-22T03:20:56.117Z,10.80
2023-05-22T03:23:25.252Z,10.77
2023-05-22T03:25:53.167Z,10.76
2023-05-22T03:28:21.167Z,10.74
2023-05-22T03:30:49.172Z,10.74
2023-05-22T03:33:17.189Z,10.73
2023-05-22T03:35:45.567Z,10.73
2023-05-22T03:38:13.521Z,10.73
2023-05-22T03:40:41.649Z,10.74
2023-05-22T03:43:09.700Z,10.75
2023-05-22T03:45:37.410Z,10.78
2023-05-22T03:48:05.468Z,10.85
2023-05-22T03:50:33.465Z,10.93
2023-05-22T03:53:01.340Z,11.01
2023-05-22T03:55:30.827Z,11.07
2023-05-22T03:57:58.625Z,11.11
2023-05-22T04:00:26.960Z,11.15
2023-05-22T04:02:58.701Z,11.19
2023-05-22T04:05:26.987Z,11.24
2023-05-22T04:07:54.825Z,11.28
2023-05-22T04:10:23.604Z,11.32
2023-05-22T04:12:51.407Z,11.36
2023-05-22T04:15:19.053Z,11.40
2023-05-22T04:17:47.458Z,11.43
2023-05-22T04:20:15.381Z,11.47
2023-05-22T04:22:43.012Z,11.53
2023-05-22T04:25:10.734Z,11.59
2023-05-22T04:27:38.513Z,11.64
2023-05-22T04:30:08.970Z,11.69
2023-05-22T04:32:37.181Z,11.75
2023-05-22T04:35:05.467Z,11.82
2023-05-22T04:37:33.202Z,11.93
2023-05-22T04:40:11.231Z,12.06
2023-05-22T04:42:39.008Z,12.20
2023-05-22T04:45:07.432Z,12.31
2023-05-22T04:47:35.080Z,12.40
2023-05-22T04:50:03.903Z,12.49
2023-05-22T04:52:31.535Z,12.59
2023-05-22T04:55:00.867Z,12.69
2023-05-22T04:57:29.744Z,12.77
2023-05-22T04:59:57.595Z,12.86
2023-05-22T05:02:25.330Z,12.94
2023-05-22T05:04:53.253Z,12.99
2023-05-22T05:07:21.592Z,13.04
2023-05-22T05:09:49.592Z,13.09
2023-05-22T05:12:17.237Z,13.13
2023-05-22T05:14:45.203Z,13.19
2023-05-22T05:17:12.994Z,13.25
2023-05-22T05:19:41.251Z,13.31
2023-05-22T05:22:09.012Z,13.38
2023-05-22T05:24:36.899Z,13.44
2023-05-22T05:27:04.717Z,13.53
2023-05-22T05:29:32.412Z,13.61
2023-05-22T05:32:00.126Z,13.70
2023-05-22T05:34:28.037Z,13.78
2023-05-22T05:36:57.339Z,13.88
2023-05-22T05:39:25.090Z,13.98
2023-05-22T05:41:52.753Z,14.08
2023-05-22T05:44:20.460Z,14.22
2023-05-22T05:46:48.155Z,14.33
2023-05-22T05:49:15.990Z,14.45
2023-05-22T05:51:43.675Z,14.58
2023-05-22T05:54:11.636Z,14.69
2023-05-22T05:56:40.035Z,14.82
2023-05-22T05:59:07.782Z,14.93
2023-05-22T06:01:35.612Z,15.05
2023-05-22T06:04:04.369Z,15.16
2023-05-22T06:06:39.494Z,15.29
2023-05-22T06:09:07.550Z,15.40
2023-05-22T06:11:35.270Z,15.53
2023-05-22T06:14:04.563Z,15.65
2023-05-22T06:16:32.418Z,15.77
2023-05-22T06:19:00.275Z,15.88
2023-05-22T06:21:28.069Z,15.98
2023-05-22T06:23:55.906Z,16.08
2023-05-22T06:26:23.665Z,16.17
2023-05-22T06:28:51.999Z,16.26
2023-05-22T06:31:20.064Z,16.33
2023-05-22T06:33:47.823Z,16.41
2023-05-22T06:36:16.326Z,16.49
2023-05-22T06:38:44.180Z,16.57
2023-05-22T06:41:11.845Z,16.63
2023-05-22T06:43:39.549Z,16.69
2023-05-22T06:46:07.556Z,16.76
2023-05-22T06:48:36.102Z,16.84
2023-05-22T06:51:04.466Z,16.91
2023-05-22T06:53:32.299Z,16.98
2023-05-22T06:56:00.040Z,17.05
2023-05-22T06:58:27.762Z,17.12
2023-05-22T07:00:55.813Z,17.22
2023-05-22T07:03:23.566Z,17.32
2023-05-22T07:05:51.560Z,17.41
2023-05-22T07:08:19.672Z,17.52
2023-05-22T07:10:47.375Z,17.62
2023-05-22T07:13:15.020Z,17.70
2023-05-22T07:15:45.098Z,17.77
2023-05-22T07:18:15.298Z,17.87
2023-05-22T07:20:42.974Z,17.97
2023-05-22T07:23:10.995Z,18.07
2023-05-22T07:25:38.953Z,18.16
2023-05-22T07:28:09.233Z,18.23
2023-05-22T07:30:38.589Z,18.31
2023-05-22T07:33:06.605Z,18.41
2023-05-22T07:35:35.153Z,18.50
2023-05-22T07:38:04.038Z,18.59
2023-05-22T07:40:31.901Z,18.66
2023-05-22T07:42:59.971Z,18.72
2023-05-22T07:45:27.738Z,18.78
2023-05-22T07:47:56.503Z,18.82
2023-05-22T07:50:26.657Z,18.85
2023-05-22T07:52:54.503Z,18.87
2023-05-22T07:55:22.686Z,18.91
2023-05-22T07:57:50.948Z,18.97
2023-05-22T08:00:19.376Z,19.02
2023-05-22T08:02:47.196Z,19.08
2023-05-22T08:05:15.119Z,19.14
2023-05-22T08:07:43.076Z,19.22
2023-05-22T08:10:15.041Z,19.29
2023-05-22T08:12:42.901Z,19.37
2023-05-22T08:15:11.360Z,19.45
2023-05-22T08:17:39.588Z,19.52
2023-05-22T08:20:09.492Z,19.57
2023-05-22T08:22:38.945Z,19.64
2023-05-22T08:25:06.882Z,19.72
2023-05-22T08:27:34.691Z,19.82
2023-05-22T08:30:04.516Z,19.90
2023-05-22T08:32:32.345Z,20.01
2023-05-22T08:35:00.164Z,20.11
2023-05-22T08:37:27.916Z,20.18
2023-05-22T08:39:55.639Z,20.27
2023-05-22T08:42:23.410Z,20.36
2023-05-22T08:44:51.069Z,20.44
2023-05-22T08:47:19.126Z,20.51
2023-05-22T08:49:47.330Z,20.58
2023-05-22T08:52:19.218Z,20.66
2023-05-22T08:54:54.509Z,20.74
2023-05-22T08:57:23.337Z,20.82
2023-05-22T08:59:51.209Z,20.90
2023-05-22T09:02:18.949Z,21.00
2023-05-22T09:04:46.807Z,21.13
2023-05-22T09:07:14.597Z,21.23
2023-05-22T09:09:42.293Z,21.33
2023-05-22T09:12:10.739Z,21.42
2023-05-22T09:14:42.299Z,21.46
2023-05-22T09:17:14.772Z,21.48
2023-05-22T09:19:46.003Z,21.52
2023-05-22T09:22:14.174Z,21.55
2023-05-22T09:24:42.584Z,21.58
2023-05-22T09:27:11.058Z,21.62
2023-05-22T09:29:57.265Z,21.63
2023-05-22T09:32:25.450Z,21.68
2023-05-22T09:34:53.217Z,21.75
2023-05-22T09:37:20.952Z,21.84
2023-05-22T09:39:51.505Z,21.93
2023-05-22T09:42:19.175Z,22.07
2023-05-22T09:44:50.188Z,22.15
2023-05-22T09:47:17.971Z,22.27
2023-05-22T09:49:46.084Z,22.42
2023-05-22T09:52:13.968Z,22.60
2023-05-22T09:54:51.069Z,22.94
2023-05-22T09:57:19.136Z,23.37
2023-05-22T09:59:55.106Z,23.79
2023-05-22T10:02:23.538Z,24.19
2023-05-22T10:04:51.811Z,24.57
2023-05-22T10:07:24.302Z,24.87
2023-05-22T10:09:56.999Z,25.13
2023-05-22T10:12:24.801Z,25.24
2023-05-22T10:14:52.435Z,25.24
2023-05-22T10:17:20.185Z,25.30
2023-05-22T10:19:48.147Z,25.39
2023-05-22T10:22:21.149Z,25.52
2023-05-22T10:24:48.928Z,25.64
2023-05-22T10:27:16.572Z,25.75
2023-05-22T10:30:17.131Z,25.80
2023-05-22T10:32:57.563Z,25.80
2023-05-22T10:35:44.184Z,25.79
2023-05-22T10:38:49.892Z,25.78
2023-05-22T10:41:17.592Z,25.88
2023-05-22T10:43:48.742Z,25.97
2023-05-22T10:46:16.695Z,25.96
2023-05-22T10:48:46.595Z,25.95
2023-05-22T10:51:15.379Z,25.91
2023-05-22T10:53:43.166Z,25.82
2023-05-22T10:56:15.481Z,25.77
2023-05-22T10:58:57.625Z,25.77
2023-05-22T11:01:25.919Z,25.79
2023-05-22T11:04:00.556Z,25.82
2023-05-22T11:06:32.138Z,25.88
2023-05-22T11:09:00.081Z,25.95
2023-05-22T11:11:28.049Z,26.01
2023-05-22T11:14:03.616Z,25.98
2023-05-22T11:16:34.321Z,25.88
2023-05-22T11:19:21.811Z,25.85
2023-05-22T11:21:50.178Z,25.94
2023-05-22T11:24:18.318Z,26.09
2023-05-22T11:27:00.789Z,26.26
2023-05-22T11:29:29.319Z,26.43
2023-05-22T11:31:58.577Z,26.52
2023-05-22T11:34:26.585Z,26.58
2023-05-22T11:37:00.878Z,26.64
2023-05-22T11:39:28.542Z,26.66
2023-05-22T11:41:56.435Z,26.68
2023-05-22T11:44:24.223Z,26.62
2023-05-22T11:46:52.520Z,26.55
2023-05-22T11:49:23.976Z,26.47
2023-05-22T11:51:51.854Z,26.31
2023-05-22T11:54:19.520Z,26.16
2023-05-22T11:56:47.291Z,26.03
2023-05-22T11:59:15.093Z,25.92
2023-05-22T12:01:42.707Z,25.80
2023-05-22T12:04:10.458Z,25.62
2023-05-22T12:06:38.320Z,25.50
2023-05-22T12:09:07.292Z,25.46
2023-05-22T12:11:36.471Z,25.46
2023-05-22T12:14:04.744Z,25.54
2023-05-22T12:16:38.972Z,25.76
2023-05-22T12:19:08.199Z,26.07
2023-05-22T12:21:36.742Z,26.42
2023-05-22T12:24:05.101Z,26.72
2023-05-22T12:26:33.098Z,27.00
2023-05-22T12:29:01.043Z,27.27
2023-05-22T12:31:28.771Z,27.53
2023-05-22T12:33:57.006Z,27.77
2023-05-22T12:36:40.836Z,27.97
2023-05-22T12:39:10.622Z,28.18
2023-05-22T12:41:38.551Z,28.44
2023-05-22T12:44:06.288Z,28.68
2023-05-22T12:46:34.266Z,28.83
2023-05-22T12:49:02.146Z,28.97
2023-05-22T12:51:31.331Z,29.07
2023-05-22T12:53:59.411Z,29.12
2023-05-22T12:56:27.792Z,29.24
2023-05-22T12:58:56.948Z,29.38
2023-05-22T13:01:25.152Z,29.53
2023-05-22T13:03:52.964Z,29.68
2023-05-22T13:06:20.992Z,29.81
2023-05-22T13:08:49.080Z,29.95
2023-05-22T13:11:16.794Z,30.09
2023-05-22T13:13:44.467Z,30.15
2023-05-22T13:16:12.298Z,30.21
2023-05-22T13:18:40.027Z,30.30
2023-05-22T13:21:07.695Z,30.33
2023-05-22T13:23:35.847Z,30.36
2023-05-22T13:26:03.553Z,30.41
2023-05-22T13:28:31.217Z,30.50
2023-05-22T13:30:59.218Z,30.49
2023-05-22T13:33:26.955Z,30.47
2023-05-22T13:35:54.700Z,30.43
2023-05-22T13:38:22.597Z,30.39
2023-05-22T13:40:50.266Z,30.41
2023-05-22T13:43:17.913Z,30.56
2023-05-22T13:45:45.980Z,30.74
2023-05-22T13:48:13.734Z,30.82
2023-05-22T13:50:41.563Z,30.88
2023-05-22T13:53:09.476Z,30.92
2023-05-22T13:55:37.222Z,31.00
2023-05-22T13:58:05.041Z,31.11
2023-05-22T14:00:32.641Z,31.28
2023-05-22T14:03:00.513Z,31.49
2023-05-22T14:05:28.355Z,31.71
2023-05-22T14:07:56.857Z,31.86
2023-05-22T14:10:24.488Z,31.81
2023-05-22T14:12:52.227Z,31.72
2023-05-22T14:15:19.978Z,31.62
2023-05-22T14:17:47.619Z,31.52
2023-05-22T14:20:15.443Z,31.49
2023-05-22T14:22:56.583Z,31.62
2023-05-22T14:25:26.314Z,31.75
2023-05-22T14:27:54.166Z,31.85
2023-05-22T14:30:21.818Z,31.98
2023-05-22T14:32:49.672Z,32.09
2023-05-22T14:35:17.419Z,32.16
2023-05-22T14:37:45.720Z,32.11
2023-05-22T14:40:13.364Z,32.03
2023-05-22T14:42:41.008Z,31.91
2023-05-22T14:45:08.928Z,31.76
2023-05-22T14:47:36.631Z,31.68
2023-05-22T14:50:18.054Z,31.73
2023-05-22T14:52:48.778Z,31.83
2023-05-22T14:55:17.112Z,31.95
2023-05-22T14:57:44.881Z,31.96
2023-05-22T15:00:13.356Z,31.97
2023-05-22T15:02:41.213Z,31.88
2023-05-22T15:05:09.804Z,31.78
2023-05-22T15:10:09.703Z,31.74
2023-05-22T15:12:37.363Z,31.76
2023-05-22T15:15:05.531Z,31.78
2023-05-22T15:17:33.395Z,31.78
2023-05-22T15:20:01.391Z,31.69
2023-05-22T15:22:29.192Z,31.49
2023-05-22T15:25:05.447Z,31.23
2023-05-22T15:27:35.023Z,30.95
2023-05-22T15:30:03.620Z,30.76
2023-05-22T15:32:34.690Z,30.65
2023-05-22T15:35:02.455Z,30.66
2023-05-22T15:37:32.611Z,30.68
2023-05-22T15:40:01.427Z,30.68
2023-05-22T15:42:30.085Z,30.60
2023-05-22T15:44:58.621Z,30.60
2023-05-22T15:47:26.340Z,30.53
2023-05-22T15:49:53.996Z,30.52
2023-05-22T15:52:24.456Z,30.53
2023-05-22T15:54:52.893Z,30.51
2023-05-22T15:57:21.275Z,30.49
2023-05-22T15:59:50.959Z,30.54
2023-05-22T16:02:18.973Z,30.49
2023-05-22T16:04:46.946Z,30.34
2023-05-22T16:07:14.572Z,30.23
2023-05-22T16:09:43.454Z,30.14
2023-05-22T16:12:11.117Z,30.04
2023-05-22T16:14:40.065Z,29.97
2023-05-22T16:17:08.135Z,29.96
2023-05-22T16:19:35.999Z,29.91
2023-05-22T16:22:04.223Z,29.85
2023-05-22T16:24:31.857Z,29.77
2023-05-22T16:26:59.851Z,29.68
2023-05-22T16:29:27.477Z,29.58
2023-05-22T16:31:56.426Z,29.57
2023-05-22T16:34:24.176Z,29.55
2023-05-22T16:36:51.807Z,29.49
2023-05-22T16:39:19.465Z,29.44
2023-05-22T16:41:47.098Z,29.30
2023-05-22T16:44:14.713Z,29.08
2023-05-22T16:46:42.401Z,28.81
2023-05-22T16:49:10.226Z,28.59
2023-05-22T16:51:37.901Z,28.30
2023-05-22T16:54:05.700Z,28.13
2023-05-22T16:56:34.162Z,28.01
2023-05-22T16:59:02.129Z,27.89
2023-05-22T17:01:30.058Z,27.74
2023-05-22T17:03:57.747Z,27.57
2023-05-22T17:06:27.546Z,27.45
2023-05-22T17:08:55.155Z,27.35
2023-05-22T17:11:24.105Z,27.29
2023-05-22T17:13:52.638Z,27.17
2023-05-22T17:16:21.054Z,27.01
2023-05-22T17:18:48.878Z,26.80
2023-05-22T17:21:17.561Z,26.58
2023-05-22T17:23:48.288Z,26.31
2023-05-22T17:26:18.867Z,26.02
2023-05-22T17:28:46.556Z,25.78
2023-05-22T17:31:14.602Z,25.48
2023-05-22T17:33:43.531Z,25.23
2023-05-22T17:36:11.279Z,25.00
2023-05-22T17:38:38.971Z,24.79
2023-05-22T17:41:06.646Z,24.56
2023-05-22T17:43:35.311Z,24.35
2023-05-22T17:46:03.198Z,24.13
2023-05-22T17:48:30.925Z,23.93
2023-05-22T17:50:59.527Z,23.74
2023-05-22T17:53:27.251Z,23.52
2023-05-22T17:55:55.086Z,23.33
2023-05-22T17:58:22.896Z,23.14
2023-05-22T18:00:50.607Z,22.95
2023-05-22T18:03:21.330Z,22.78
2023-05-22T18:05:49.263Z,22.60
2023-05-22T18:08:17.922Z,22.45
2023-05-22T18:10:45.626Z,22.29
2023-05-22T18:13:13.378Z,22.14
2023-05-22T18:15:41.229Z,21.98
2023-05-22T18:18:11.375Z,21.83
2023-05-22T18:20:40.599Z,21.67
2023-05-22T18:23:08.605Z,21.52
2023-05-22T18:25:36.282Z,21.37
2023-05-22T18:28:03.910Z,21.23
2023-05-22T18:30:32.350Z,21.10
2023-05-22T18:33:00.172Z,20.95
2023-05-22T18:35:27.874Z,20.82
2023-05-22T18:37:55.501Z,20.68
2023-05-22T18:40:24.442Z,20.54
2023-05-22T18:42:52.121Z,20.41
2023-05-22T18:45:19.728Z,20.27
2023-05-22T18:47:47.638Z,20.14
2023-05-22T18:50:15.423Z,20.00
2023-05-22T18:52:43.295Z,19.87
2023-05-22T18:55:12.344Z,19.75
2023-05-22T18:57:40.051Z,19.62
2023-05-22T19:00:10.334Z,19.50
2023-05-22T19:02:38.020Z,19.35
2023-05-22T19:05:07.086Z,19.21
2023-05-22T19:07:36.278Z,19.06
2023-05-22T19:10:07.132Z,18.90
2023-05-22T19:12:36.761Z,18.75
2023-05-22T19:15:05.541Z,18.60
2023-05-22T19:17:34.381Z,18.47
2023-05-22T19:20:06.441Z,18.34
2023-05-22T19:22:34.981Z,18.21
2023-05-22T19:25:02.939Z,18.08
2023-05-22T19:27:31.003Z,17.97
2023-05-22T19:29:58.701Z,17.86
2023-05-22T19:32:26.309Z,17.74
2023-05-22T19:34:53.991Z,17.64
2023-05-22T19:37:21.951Z,17.51
2023-05-22T19:39:50.641Z,17.40
2023-05-22T19:42:18.540Z,17.28
2023-05-22T19:44:46.168Z,17.19
2023-05-22T19:47:13.888Z,17.07
2023-05-22T19:49:42.590Z,16.96
2023-05-22T19:52:10.519Z,16.86
2023-05-22T19:54:38.811Z,16.73
2023-05-22T19:57:06.551Z,16.60
2023-05-22T19:59:36.527Z,16.49
2023-05-22T20:02:04.754Z,16.38
2023-05-22T20:04:34.455Z,16.28
2023-05-22T20:07:03.877Z,16.19
2023-05-22T20:09:32.334Z,16.09
2023-05-22T20:12:00.137Z,16.00
2023-05-22T20:14:27.782Z,15.91
2023-05-22T20:16:55.621Z,15.82
2023-05-22T20:19:24.355Z,15.71
2023-05-22T20:21:52.569Z,15.62
2023-05-22T20:24:25.195Z,15.51
2023-05-22T20:26:53.016Z,15.41
2023-05-22T20:29:20.880Z,15.30
2023-05-22T20:31:48.860Z,15.18
2023-05-22T20:34:16.695Z,15.07
2023-05-22T20:36:44.910Z,14.96
2023-05-22T20:39:12.904Z,14.85
2023-05-22T20:41:40.532Z,14.74
2023-05-22T20:44:08.398Z,14.66
2023-05-22T20:46:36.491Z,14.59
2023-05-22T20:49:05.180Z,14.50
2023-05-22T20:51:33.609Z,14.42
2023-05-22T20:54:01.613Z,14.34
2023-05-22T20:56:30.081Z,14.28
2023-05-22T20:58:57.948Z,14.21
2023-05-22T21:01:25.679Z,14.15
2023-05-22T21:03:56.437Z,14.09
2023-05-22T21:06:24.518Z,14.04
2023-05-22T21:08:54.206Z,13.98
2023-05-22T21:11:22.171Z,13.92
2023-05-22T21:13:49.869Z,13.87
2023-05-22T21:16:17.624Z,13.81
2023-05-22T21:18:45.560Z,13.76
2023-05-22T21:21:14.482Z,13.69
2023-05-22T21:23:43.289Z,13.63
2023-05-22T21:26:11.084Z,13.57
2023-05-22T21:28:38.899Z,13.49
2023-05-22T21:31:07.046Z,13.42
2023-05-22T21:33:35.063Z,13.35
2023-05-22T21:36:02.697Z,13.29
2023-05-22T21:38:30.625Z,13.26
2023-05-22T21:40:58.400Z,13.25
2023-05-22T21:43:26.208Z,13.26
2023-05-22T21:45:54.190Z,13.26
2023-05-22T21:48:21.813Z,13.23
2023-05-22T21:50:50.225Z,13.17
2023-05-22T21:53:17.892Z,13.10
2023-05-22T21:55:45.801Z,13.03
2023-05-22T21:58:13.722Z,12.96
2023-05-22T22:00:41.558Z,12.90
2023-05-22T22:03:09.532Z,12.85
2023-05-22T22:05:37.528Z,12.80
2023-05-22T22:08:05.260Z,12.77
2023-05-22T22:10:32.850Z,12.73
2023-05-22T22:13:01.449Z,12.67
2023-05-22T22:15:29.348Z,12.59
2023-05-22T22:17:59.473Z,12.51
2023-05-22T22:20:39.966Z,12.44
2023-05-22T22:23:10.936Z,12.36
2023-05-22T22:25:39.455Z,12.30
2023-05-22T22:28:07.488Z,12.27
2023-05-22T22:30:35.672Z,12.28
2023-05-22T22:33:03.551Z,12.29
2023-05-22T22:35:31.286Z,12.31
2023-05-22T22:37:59.145Z,12.31
2023-05-22T22:40:27.012Z,12.30
2023-05-22T22:42:54.888Z,12.27
2023-05-22T22:45:22.559Z,12.23
2023-05-22T22:47:50.503Z,12.20
2023-05-22T22:50:18.406Z,12.15
2023-05-22T22:52:46.050Z,12.11
2023-05-22T22:55:14.022Z,12.05
2023-05-22T22:57:44.692Z,11.99
2023-05-22T23:00:13.478Z,11.92
2023-05-22T23:02:41.356Z,11.87
2023-05-22T23:05:09.448Z,11.81
2023-05-22T23:07:37.641Z,11.75
2023-05-22T23:10:06.014Z,11.70
2023-05-22T23:12:36.232Z,11.67
2023-05-22T23:15:05.184Z,11.67
2023-05-22T23:17:32.884Z,11.68
2023-05-22T23:20:01.095Z,11.68
2023-05-22T23:22:28.737Z,11.67
2023-05-22T23:24:56.423Z,11.65
2023-05-22T23:27:24.034Z,11.62
2023-05-22T23:29:51.878Z,11.58
2023-05-22T23:32:19.560Z,11.53
2023-05-22T23:34:47.159Z,11.48
2023-05-22T23:37:15.043Z,11.42
2023-05-22T23:39:43.015Z,11.36
2023-05-22T23:42:11.997Z,11.29
2023-05-22T23:44:39.892Z,11.22
2023-05-22T23:47:08.250Z,11.17
2023-05-22T23:49:36.046Z,11.12
2023-05-22T23:52:03.833Z,11.09
2023-05-22T23:54:31.453Z,11.11
2023-05-22T23:56:59.088Z,11.14
2023-05-22T23:59:26.798Z,11.14
